Arapaho, Oklahoma
Current Conditions -  °F | °C
As of 12:35 PM on Sunday 23 Nov 2014 (Local Time) from KCLK Reporting Station
Scattered Clouds Scattered Clouds  
Wind Chill: 59°   Ceiling: Unl
Heat Index: 59°   Visibility: 10mi
Dew Point: 39°   Wind: 23mph
Humidity: 48%   Direction: 350°N
Pressure: 29.4"   Gusts: 32mph
Location:  35.58°N, 98.96°W
Report Text: KCLK 231835Z AUTO 35020G28KT 10SM SCT033 15/04 A2940 RMK AO2
Loading
Personal Weather Stations






























Interactive Weather Map New forecast layout! Learn more

10-Day Weather Forecast

Advertisements
Track Severe Weather on mobile